sensor_id;sensor_type;location;lat;lon;timestamp;pressure;altitude;pressure_sealevel;temperature;humidity
62510;BME280;48558;48.242;11.654;2024-02-23T00:01:03;94309.47;;;8.58;100.00
62510;BME280;48558;48.242;11.654;2024-02-23T00:05:17;94316.72;;;8.55;100.00
62510;BME280;48558;48.242;11.654;2024-02-23T00:09:29;94327.22;;;8.51;100.00
62510;BME280;48558;48.242;11.654;2024-02-23T00:13:52;94329.44;;;8.36;100.00
62510;BME280;48558;48.242;11.654;2024-02-23T00:18:05;94337.44;;;8.40;100.00
62510;BME280;48558;48.242;11.654;2024-02-23T00:22:18;94330.94;;;8.37;100.00
62510;BME280;48558;48.242;11.654;2024-02-23T00:26:31;94336.34;;;8.15;100.00
62510;BME280;48558;48.242;11.654;2024-02-23T00:30:44;94329.84;;;8.24;100.00
62510;BME280;48558;48.242;11.654;2024-02-23T00:34:57;94341.94;;;8.32;100.00
62510;BME280;48558;48.242;11.654;2024-02-23T00:39:10;94334.34;;;8.21;100.00
62510;BME280;48558;48.242;11.654;2024-02-23T00:43:23;94341.91;;;8.26;100.00
62510;BME280;48558;48.242;11.654;2024-02-23T00:47:36;94350.59;;;8.14;100.00
62510;BME280;48558;48.242;11.654;2024-02-23T00:51:50;94350.53;;;8.03;100.00
62510;BME280;48558;48.242;11.654;2024-02-23T00:56:02;94373.06;;;8.12;100.00
62510;BME280;48558;48.242;11.654;2024-02-23T01:00:15;94367.03;;;8.03;100.00
62510;BME280;48558;48.242;11.654;2024-02-23T01:04:28;94345.97;;;7.88;100.00
62510;BME280;48558;48.242;11.654;2024-02-23T01:08:41;94381.81;;;8.11;100.00
62510;BME280;48558;48.242;11.654;2024-02-23T01:12:53;94384.56;;;8.11;100.00
62510;BME280;48558;48.242;11.654;2024-02-23T01:17:06;94390.78;;;8.00;100.00
62510;BME280;48558;48.242;11.654;2024-02-23T01:21:19;94381.78;;;8.05;99.70
62510;BME280;48558;48.242;11.654;2024-02-23T01:25:31;94371.75;;;7.96;97.09
62510;BME280;48558;48.242;11.654;2024-02-23T01:29:47;94399.03;;;8.00;96.88
62510;BME280;48558;48.242;11.654;2024-02-23T01:33:59;94419.81;;;8.12;97.24
62510;BME280;48558;48.242;11.654;2024-02-23T01:38:12;94385.94;;;7.89;97.52
62510;BME280;48558;48.242;11.654;2024-02-23T01:42:31;94429.72;;;7.93;99.56
62510;BME280;48558;48.242;11.654;2024-02-23T01:46:43;94409.53;;;8.02;99.35
62510;BME280;48558;48.242;11.654;2024-02-23T01:50:56;94394.19;;;7.84;98.97
62510;BME280;48558;48.242;11.654;2024-02-23T01:55:09;94423.22;;;7.90;98.19
62510;BME280;48558;48.242;11.654;2024-02-23T01:59:23;94401.78;;;7.63;98.00
62510;BME280;48558;48.242;11.654;2024-02-23T02:03:39;94428.34;;;7.72;98.85
62510;BME280;48558;48.242;11.654;2024-02-23T02:07:53;94438.03;;;7.67;99.60
62510;BME280;48558;48.242;11.654;2024-02-23T02:12:11;94421.44;;;7.51;100.00
62510;BME280;48558;48.242;11.654;2024-02-23T02:16:23;94432.44;;;7.51;99.21
62510;BME280;48558;48.242;11.654;2024-02-23T02:20:36;94447.28;;;7.64;97.63
62510;BME280;48558;48.242;11.654;2024-02-23T02:24:49;94456.72;;;7.58;98.66
62510;BME280;48558;48.242;11.654;2024-02-23T02:29:02;94412.31;;;7.34;100.00
62510;BME280;48558;48.242;11.654;2024-02-23T02:33:16;94459.38;;;7.47;100.00
62510;BME280;48558;48.242;11.654;2024-02-23T02:37:28;94463.56;;;7.42;100.00
62510;BME280;48558;48.242;11.654;2024-02-23T02:41:41;94457.03;;;7.34;100.00
62510;BME280;48558;48.242;11.654;2024-02-23T02:45:54;94484.06;;;7.41;100.00
62510;BME280;48558;48.242;11.654;2024-02-23T02:50:08;94472.63;;;7.22;100.00
62510;BME280;48558;48.242;11.654;2024-02-23T02:54:21;94459.72;;;7.03;100.00
62510;BME280;48558;48.242;11.654;2024-02-23T02:58:33;94475.84;;;6.95;100.00
62510;BME280;48558;48.242;11.654;2024-02-23T03:02:46;94482.16;;;7.01;100.00
62510;BME280;48558;48.242;11.654;2024-02-23T03:06:58;94482.16;;;7.01;100.00
62510;BME280;48558;48.242;11.654;2024-02-23T03:11:11;94477.91;;;7.00;100.00
62510;BME280;48558;48.242;11.654;2024-02-23T03:15:24;94476.41;;;6.99;100.00
62510;BME280;48558;48.242;11.654;2024-02-23T03:19:37;94483.56;;;6.91;100.00
62510;BME280;48558;48.242;11.654;2024-02-23T03:23:50;94482.88;;;6.96;100.00
62510;BME280;48558;48.242;11.654;2024-02-23T03:28:03;94471.31;;;6.92;100.00
62510;BME280;48558;48.242;11.654;2024-02-23T03:32:15;94483.81;;;6.93;100.00
62510;BME280;48558;48.242;11.654;2024-02-23T03:36:28;94502.94;;;7.08;100.00
62510;BME280;48558;48.242;11.654;2024-02-23T03:40:41;94481.88;;;6.74;100.00
62510;BME280;48558;48.242;11.654;2024-02-23T03:44:54;94510.75;;;6.14;100.00
62510;BME280;48558;48.242;11.654;2024-02-23T03:49:07;94499.88;;;5.85;100.00
62510;BME280;48558;48.242;11.654;2024-02-23T03:53:20;94516.41;;;5.76;100.00
62510;BME280;48558;48.242;11.654;2024-02-23T03:57:32;94509.03;;;5.38;100.00
62510;BME280;48558;48.242;11.654;2024-02-23T04:01:45;94518.56;;;5.43;100.00
62510;BME280;48558;48.242;11.654;2024-02-23T04:05:58;94524.16;;;5.63;100.00
62510;BME280;48558;48.242;11.654;2024-02-23T04:10:10;94518.09;;;5.59;100.00
62510;BME280;48558;48.242;11.654;2024-02-23T04:14:38;94502.03;;;5.52;100.00
62510;BME280;48558;48.242;11.654;2024-02-23T04:18:53;94533.00;;;5.72;100.00
62510;BME280;48558;48.242;11.654;2024-02-23T04:23:06;94532.34;;;5.77;100.00
62510;BME280;48558;48.242;11.654;2024-02-23T04:27:19;94516.41;;;5.61;100.00
62510;BME280;48558;48.242;11.654;2024-02-23T04:31:31;94531.97;;;5.70;100.00
62510;BME280;48558;48.242;11.654;2024-02-23T04:35:44;94529.22;;;5.70;100.00
62510;BME280;48558;48.242;11.654;2024-02-23T04:39:57;94519.41;;;5.63;100.00
62510;BME280;48558;48.242;11.654;2024-02-23T04:44:09;94507.13;;;5.73;100.00
62510;BME280;48558;48.242;11.654;2024-02-23T04:48:22;94513.28;;;5.83;100.00
62510;BME280;48558;48.242;11.654;2024-02-23T04:52:34;94504.78;;;5.81;100.00
62510;BME280;48558;48.242;11.654;2024-02-23T04:56:48;94519.50;;;5.98;100.00
62510;BME280;48558;48.242;11.654;2024-02-23T05:01:02;94504.28;;;5.97;100.00
62510;BME280;48558;48.242;11.654;2024-02-23T05:05:15;94502.72;;;6.11;100.00
62510;BME280;48558;48.242;11.654;2024-02-23T05:09:28;94487.38;;;5.99;100.00
62510;BME280;48558;48.242;11.654;2024-02-23T05:13:41;94484.97;;;6.06;100.00
62510;BME280;48558;48.242;11.654;2024-02-23T05:17:53;94479.53;;;5.92;100.00
62510;BME280;48558;48.242;11.654;2024-02-23T05:22:06;94492.63;;;6.02;100.00
62510;BME280;48558;48.242;11.654;2024-02-23T05:26:19;94513.91;;;6.07;100.00
62510;BME280;48558;48.242;11.654;2024-02-23T05:30:32;94510.94;;;6.11;100.00
62510;BME280;48558;48.242;11.654;2024-02-23T05:34:44;94518.47;;;5.96;100.00
62510;BME280;48558;48.242;11.654;2024-02-23T05:38:57;94526.97;;;5.98;100.00
62510;BME280;48558;48.242;11.654;2024-02-23T05:43:09;94521.09;;;6.05;100.00
62510;BME280;48558;48.242;11.654;2024-02-23T05:47:22;94537.38;;;5.94;100.00
62510;BME280;48558;48.242;11.654;2024-02-23T05:51:35;94522.22;;;5.83;100.00
62510;BME280;48558;48.242;11.654;2024-02-23T05:55:47;94534.72;;;5.99;100.00
62510;BME280;48558;48.242;11.654;2024-02-23T06:00:01;94556.72;;;6.05;100.00
62510;BME280;48558;48.242;11.654;2024-02-23T06:04:13;94556.81;;;6.10;100.00
62510;BME280;48558;48.242;11.654;2024-02-23T06:08:26;94551.06;;;5.94;100.00
62510;BME280;48558;48.242;11.654;2024-02-23T06:12:38;94562.69;;;5.89;100.00
62510;BME280;48558;48.242;11.654;2024-02-23T06:16:51;94546.16;;;5.98;100.00
62510;BME280;48558;48.242;11.654;2024-02-23T06:21:11;94560.31;;;6.11;100.00
62510;BME280;48558;48.242;11.654;2024-02-23T06:25:27;94575.84;;;5.99;100.00
62510;BME280;48558;48.242;11.654;2024-02-23T06:29:40;94561.75;;;5.92;100.00
62510;BME280;48558;48.242;11.654;2024-02-23T06:33:53;94587.25;;;5.98;100.00
62510;BME280;48558;48.242;11.654;2024-02-23T06:38:05;94571.19;;;6.05;100.00
62510;BME280;48558;48.242;11.654;2024-02-23T06:42:19;94599.81;;;6.19;100.00
62510;BME280;48558;48.242;11.654;2024-02-23T06:46:31;94594.66;;;6.41;100.00
62510;BME280;48558;48.242;11.654;2024-02-23T06:50:44;94584.75;;;6.29;100.00
62510;BME280;48558;48.242;11.654;2024-02-23T06:54:56;94580.41;;;6.37;100.00
62510;BME280;48558;48.242;11.654;2024-02-23T06:59:09;94568.31;;;6.29;100.00
62510;BME280;48558;48.242;11.654;2024-02-23T07:03:21;94563.13;;;6.31;100.00
62510;BME280;48558;48.242;11.654;2024-02-23T07:07:34;94581.50;;;6.45;100.00
62510;BME280;48558;48.242;11.654;2024-02-23T07:11:47;94588.41;;;6.55;100.00
62510;BME280;48558;48.242;11.654;2024-02-23T07:16:00;94586.59;;;6.52;100.00
62510;BME280;48558;48.242;11.654;2024-02-23T07:20:13;94588.00;;;6.62;100.00
62510;BME280;48558;48.242;11.654;2024-02-23T07:24:27;94607.72;;;6.46;100.00
62510;BME280;48558;48.242;11.654;2024-02-23T07:28:39;94608.66;;;6.43;100.00
62510;BME280;48558;48.242;11.654;2024-02-23T07:32:52;94614.31;;;6.54;100.00
62510;BME280;48558;48.242;11.654;2024-02-23T07:37:05;94614.25;;;6.48;98.50
62510;BME280;48558;48.242;11.654;2024-02-23T07:41:17;94623.22;;;6.49;100.00
62510;BME280;48558;48.242;11.654;2024-02-23T07:45:30;94629.00;;;6.51;100.00
62510;BME280;48558;48.242;11.654;2024-02-23T07:49:43;94621.78;;;6.53;100.00
62510;BME280;48558;48.242;11.654;2024-02-23T07:53:56;94625.09;;;6.58;100.00
62510;BME280;48558;48.242;11.654;2024-02-23T07:58:08;94611.31;;;6.72;95.79
62510;BME280;48558;48.242;11.654;2024-02-23T08:02:21;94615.38;;;6.77;94.65
62510;BME280;48558;48.242;11.654;2024-02-23T08:06:33;94604.00;;;7.04;91.60
62510;BME280;48558;48.242;11.654;2024-02-23T08:10:46;94612.19;;;7.18;90.92
62510;BME280;48558;48.242;11.654;2024-02-23T08:14:58;94598.38;;;7.13;88.69
62510;BME280;48558;48.242;11.654;2024-02-23T08:19:11;94579.97;;;6.99;88.88
62510;BME280;48558;48.242;11.654;2024-02-23T08:23:24;94585.91;;;7.38;88.66
62510;BME280;48558;48.242;11.654;2024-02-23T08:27:37;94602.03;;;7.04;87.60
62510;BME280;48558;48.242;11.654;2024-02-23T08:31:49;94577.50;;;7.21;89.25
62510;BME280;48558;48.242;11.654;2024-02-23T08:36:03;94577.78;;;7.49;86.18
62510;BME280;48558;48.242;11.654;2024-02-23T08:40:17;94572.47;;;7.91;84.10
62510;BME280;48558;48.242;11.654;2024-02-23T08:44:30;94585.28;;;8.00;80.48
62510;BME280;48558;48.242;11.654;2024-02-23T08:48:43;94574.94;;;7.89;79.80
62510;BME280;48558;48.242;11.654;2024-02-23T08:52:56;94596.78;;;7.98;78.87
62510;BME280;48558;48.242;11.654;2024-02-23T08:57:08;94599.78;;;8.00;78.52
62510;BME280;48558;48.242;11.654;2024-02-23T09:01:21;94629.53;;;8.02;80.75
62510;BME280;48558;48.242;11.654;2024-02-23T09:05:33;94638.00;;;7.72;80.75
62510;BME280;48558;48.242;11.654;2024-02-23T09:09:47;94643.97;;;7.45;79.35
62510;BME280;48558;48.242;11.654;2024-02-23T09:14:00;94624.78;;;7.51;79.38
62510;BME280;48558;48.242;11.654;2024-02-23T09:18:14;94655.41;;;7.64;79.47
62510;BME280;48558;48.242;11.654;2024-02-23T09:22:26;94685.47;;;6.92;81.37
62510;BME280;48558;48.242;11.654;2024-02-23T09:26:40;94683.19;;;7.26;84.03
62510;BME280;48558;48.242;11.654;2024-02-23T09:30:53;94667.94;;;7.24;83.04
62510;BME280;48558;48.242;11.654;2024-02-23T09:35:09;94665.41;;;7.21;84.55
62510;BME280;48558;48.242;11.654;2024-02-23T09:39:21;94625.16;;;6.63;83.97
62510;BME280;48558;48.242;11.654;2024-02-23T09:43:35;94650.63;;;6.98;83.28
62510;BME280;48558;48.242;11.654;2024-02-23T09:47:48;94666.56;;;7.14;82.24
62510;BME280;48558;48.242;11.654;2024-02-23T09:52:02;94668.91;;;7.42;81.21
62510;BME280;48558;48.242;11.654;2024-02-23T09:56:16;94677.69;;;7.46;82.17
62510;BME280;48558;48.242;11.654;2024-02-23T10:00:30;94660.78;;;7.53;77.49
62510;BME280;48558;48.242;11.654;2024-02-23T10:04:43;94666.09;;;7.36;80.39
62510;BME280;48558;48.242;11.654;2024-02-23T10:08:56;94654.94;;;7.45;78.77
62510;BME280;48558;48.242;11.654;2024-02-23T10:13:09;94674.69;;;7.44;76.37
62510;BME280;48558;48.242;11.654;2024-02-23T10:17:21;94671.75;;;7.73;73.95
62510;BME280;48558;48.242;11.654;2024-02-23T10:21:34;94677.41;;;7.44;73.61
62510;BME280;48558;48.242;11.654;2024-02-23T10:25:47;94673.34;;;7.79;71.45
62510;BME280;48558;48.242;11.654;2024-02-23T10:30:00;94673.25;;;7.74;73.18
62510;BME280;48558;48.242;11.654;2024-02-23T10:34:14;94649.81;;;7.78;71.86
62510;BME280;48558;48.242;11.654;2024-02-23T10:38:28;94649.75;;;7.98;71.40
62510;BME280;48558;48.242;11.654;2024-02-23T10:42:46;94642.53;;;8.01;70.90
62510;BME280;48558;48.242;11.654;2024-02-23T10:47:02;94640.44;;;8.16;70.74
62510;BME280;48558;48.242;11.654;2024-02-23T10:51:17;94663.25;;;8.48;71.46
62510;BME280;48558;48.242;11.654;2024-02-23T10:55:32;94651.31;;;8.62;70.06
62510;BME280;48558;48.242;11.654;2024-02-23T10:59:49;94669.97;;;8.78;71.10
62510;BME280;48558;48.242;11.654;2024-02-23T11:04:02;94662.66;;;8.70;70.18
62510;BME280;48558;48.242;11.654;2024-02-23T11:08:19;94658.31;;;8.26;79.05
62510;BME280;48558;48.242;11.654;2024-02-23T11:12:33;94655.38;;;7.84;81.74
62510;BME280;48558;48.242;11.654;2024-02-23T11:16:51;94662.41;;;7.65;82.48
62510;BME280;48558;48.242;11.654;2024-02-23T11:21:05;94651.88;;;7.83;83.44
62510;BME280;48558;48.242;11.654;2024-02-23T11:25:18;94641.31;;;8.02;85.35
62510;BME280;48558;48.242;11.654;2024-02-23T11:29:35;94658.00;;;7.98;84.68
62510;BME280;48558;48.242;11.654;2024-02-23T11:33:56;94663.31;;;8.02;85.33
62510;BME280;48558;48.242;11.654;2024-02-23T11:38:10;94661.59;;;7.59;84.51
62510;BME280;48558;48.242;11.654;2024-02-23T11:42:27;94653.06;;;7.77;84.52
62510;BME280;48558;48.242;11.654;2024-02-23T11:46:40;94646.25;;;7.72;83.14
62510;BME280;48558;48.242;11.654;2024-02-23T11:50:54;94651.94;;;7.89;83.04
62510;BME280;48558;48.242;11.654;2024-02-23T11:55:07;94647.66;;;7.88;80.11
62510;BME280;48558;48.242;11.654;2024-02-23T11:59:23;94654.69;;;7.89;79.21
62510;BME280;48558;48.242;11.654;2024-02-23T12:03:41;94645.94;;;7.90;80.17
62510;BME280;48558;48.242;11.654;2024-02-23T12:07:56;94637.78;;;7.76;76.37
62510;BME280;48558;48.242;11.654;2024-02-23T12:12:10;94641.97;;;7.46;76.10
62510;BME280;48558;48.242;11.654;2024-02-23T12:16:23;94649.22;;;7.69;76.28
62510;BME280;48558;48.242;11.654;2024-02-23T12:20:36;94642.72;;;7.46;76.20
62510;BME280;48558;48.242;11.654;2024-02-23T12:24:49;94655.16;;;7.42;78.21
62510;BME280;48558;48.242;11.654;2024-02-23T12:29:02;94643.16;;;7.39;78.41
62510;BME280;48558;48.242;11.654;2024-02-23T12:33:16;94625.13;;;7.58;77.67
62510;BME280;48558;48.242;11.654;2024-02-23T12:37:34;94615.94;;;7.41;76.66
62510;BME280;48558;48.242;11.654;2024-02-23T12:41:48;94603.41;;;7.14;77.41
62510;BME280;48558;48.242;11.654;2024-02-23T12:46:00;94617.25;;;7.46;76.60
62510;BME280;48558;48.242;11.654;2024-02-23T12:50:15;94616.91;;;7.38;77.33
62510;BME280;48558;48.242;11.654;2024-02-23T12:54:28;94627.41;;;7.40;77.26
62510;BME280;48558;48.242;11.654;2024-02-23T12:58:42;94636.63;;;7.16;78.63
62510;BME280;48558;48.242;11.654;2024-02-23T13:02:55;94630.16;;;6.99;77.85
62510;BME280;48558;48.242;11.654;2024-02-23T13:07:08;94609.72;;;7.00;75.75
62510;BME280;48558;48.242;11.654;2024-02-23T13:11:21;94602.97;;;7.21;74.68
62510;BME280;48558;48.242;11.654;2024-02-23T13:15:33;94592.88;;;6.93;74.70
62510;BME280;48558;48.242;11.654;2024-02-23T13:19:46;94615.94;;;7.41;73.67
62510;BME280;48558;48.242;11.654;2024-02-23T13:24:15;94631.06;;;7.11;75.63
62510;BME280;48558;48.242;11.654;2024-02-23T13:28:28;94632.22;;;7.24;73.98
62510;BME280;48558;48.242;11.654;2024-02-23T13:32:41;94631.69;;;7.00;72.84
62510;BME280;48558;48.242;11.654;2024-02-23T13:36:53;94647.78;;;6.93;73.99
62510;BME280;48558;48.242;11.654;2024-02-23T13:41:06;94637.44;;;6.82;74.58
62510;BME280;48558;48.242;11.654;2024-02-23T13:45:19;94625.63;;;6.96;76.53
62510;BME280;48558;48.242;11.654;2024-02-23T13:49:32;94611.16;;;6.61;77.21
62510;BME280;48558;48.242;11.654;2024-02-23T13:53:45;94601.06;;;6.87;77.97
62510;BME280;48558;48.242;11.654;2024-02-23T13:57:57;94629.47;;;7.04;76.82
62510;BME280;48558;48.242;11.654;2024-02-23T14:02:10;94616.91;;;6.98;77.44
62510;BME280;48558;48.242;11.654;2024-02-23T14:06:23;94584.84;;;7.09;78.40
62510;BME280;48558;48.242;11.654;2024-02-23T14:10:36;94572.34;;;7.08;73.75
62510;BME280;48558;48.242;11.654;2024-02-23T14:14:49;94570.78;;;6.82;72.91
62510;BME280;48558;48.242;11.654;2024-02-23T14:19:01;94575.84;;;6.69;73.92
62510;BME280;48558;48.242;11.654;2024-02-23T14:23:14;94561.00;;;6.61;74.35
62510;BME280;48558;48.242;11.654;2024-02-23T14:27:26;94569.59;;;6.48;74.35
62510;BME280;48558;48.242;11.654;2024-02-23T14:31:42;94605.28;;;6.68;75.50
62510;BME280;48558;48.242;11.654;2024-02-23T14:35:55;94576.88;;;6.51;75.15
62510;BME280;48558;48.242;11.654;2024-02-23T14:40:08;94604.81;;;6.35;76.65
62510;BME280;48558;48.242;11.654;2024-02-23T14:44:21;94602.72;;;6.44;77.80
62510;BME280;48558;48.242;11.654;2024-02-23T14:48:33;94610.09;;;6.38;77.81
62510;BME280;48558;48.242;11.654;2024-02-23T14:52:46;94611.84;;;6.21;77.30
62510;BME280;48558;48.242;11.654;2024-02-23T14:56:59;94619.72;;;5.99;76.89
62510;BME280;48558;48.242;11.654;2024-02-23T15:01:11;94600.13;;;5.92;77.82
62510;BME280;48558;48.242;11.654;2024-02-23T15:05:24;94582.00;;;5.94;77.92
62510;BME280;48558;48.242;11.654;2024-02-23T15:09:37;94574.41;;;5.60;78.31
62510;BME280;48558;48.242;11.654;2024-02-23T15:13:52;94559.28;;;5.64;77.77
62510;BME280;48558;48.242;11.654;2024-02-23T15:18:09;94565.81;;;5.67;78.74
62510;BME280;48558;48.242;11.654;2024-02-23T15:22:22;94558.81;;;5.66;77.72
62510;BME280;48558;48.242;11.654;2024-02-23T15:26:35;94601.59;;;5.63;79.29
62510;BME280;48558;48.242;11.654;2024-02-23T15:30:48;94593.09;;;5.47;79.33
62510;BME280;48558;48.242;11.654;2024-02-23T15:35:02;94605.63;;;5.39;79.81
62510;BME280;48558;48.242;11.654;2024-02-23T15:39:15;94557.66;;;5.43;79.02
62510;BME280;48558;48.242;11.654;2024-02-23T15:43:28;94552.28;;;5.34;79.97
62510;BME280;48558;48.242;11.654;2024-02-23T15:47:41;94575.31;;;5.28;81.29
62510;BME280;48558;48.242;11.654;2024-02-23T15:51:54;94570.19;;;5.21;82.52
62510;BME280;48558;48.242;11.654;2024-02-23T15:56:12;94589.22;;;5.00;83.94
62510;BME280;48558;48.242;11.654;2024-02-23T16:00:25;94610.28;;;5.09;84.10
62510;BME280;48558;48.242;11.654;2024-02-23T16:04:37;94605.06;;;4.96;85.69
62510;BME280;48558;48.242;11.654;2024-02-23T16:08:50;94593.88;;;5.09;86.44
62510;BME280;48558;48.242;11.654;2024-02-23T16:13:02;94576.50;;;4.97;87.72
62510;BME280;48558;48.242;11.654;2024-02-23T16:17:16;94593.44;;;4.87;90.20
62510;BME280;48558;48.242;11.654;2024-02-23T16:21:28;94597.91;;;4.75;92.28
62510;BME280;48558;48.242;11.654;2024-02-23T16:25:43;94585.53;;;4.65;93.84
62510;BME280;48558;48.242;11.654;2024-02-23T16:29:56;94578.59;;;4.79;95.32
62510;BME280;48558;48.242;11.654;2024-02-23T16:34:08;94591.34;;;4.58;97.58
62510;BME280;48558;48.242;11.654;2024-02-23T16:38:21;94598.22;;;4.54;98.91
62510;BME280;48558;48.242;11.654;2024-02-23T16:42:33;94569.81;;;4.51;99.09
62510;BME280;48558;48.242;11.654;2024-02-23T16:46:46;94582.66;;;4.60;99.57
62510;BME280;48558;48.242;11.654;2024-02-23T16:51:00;94569.19;;;4.56;100.00
62510;BME280;48558;48.242;11.654;2024-02-23T16:55:12;94564.53;;;4.48;100.00
62510;BME280;48558;48.242;11.654;2024-02-23T16:59:25;94555.81;;;4.25;100.00
62510;BME280;48558;48.242;11.654;2024-02-23T17:03:37;94562.19;;;4.31;100.00
62510;BME280;48558;48.242;11.654;2024-02-23T17:07:50;94562.91;;;4.32;100.00
62510;BME280;48558;48.242;11.654;2024-02-23T17:12:03;94584.22;;;4.28;100.00
62510;BME280;48558;48.242;11.654;2024-02-23T17:16:16;94612.81;;;4.18;100.00
62510;BME280;48558;48.242;11.654;2024-02-23T17:20:29;94649.41;;;4.20;100.00
62510;BME280;48558;48.242;11.654;2024-02-23T17:24:43;94635.13;;;4.16;100.00
62510;BME280;48558;48.242;11.654;2024-02-23T17:28:55;94613.88;;;4.20;100.00
62510;BME280;48558;48.242;11.654;2024-02-23T17:33:08;94605.81;;;4.17;100.00
62510;BME280;48558;48.242;11.654;2024-02-23T17:37:21;94577.88;;;4.22;100.00
62510;BME280;48558;48.242;11.654;2024-02-23T17:41:34;94567.09;;;4.18;100.00
62510;BME280;48558;48.242;11.654;2024-02-23T17:45:46;94563.00;;;4.14;100.00
62510;BME280;48558;48.242;11.654;2024-02-23T17:49:59;94628.78;;;4.10;100.00
62510;BME280;48558;48.242;11.654;2024-02-23T17:54:13;94628.31;;;4.12;100.00
62510;BME280;48558;48.242;11.654;2024-02-23T17:58:25;94621.59;;;4.22;100.00
62510;BME280;48558;48.242;11.654;2024-02-23T18:02:38;94559.47;;;3.57;100.00
62510;BME280;48558;48.242;11.654;2024-02-23T18:06:50;94633.34;;;4.13;100.00
62510;BME280;48558;48.242;11.654;2024-02-23T18:11:03;94625.25;;;4.19;100.00
62510;BME280;48558;48.242;11.654;2024-02-23T18:15:17;94588.75;;;3.98;100.00
62510;BME280;48558;48.242;11.654;2024-02-23T18:19:29;94594.75;;;4.20;100.00
62510;BME280;48558;48.242;11.654;2024-02-23T18:23:43;94593.88;;;4.05;100.00
62510;BME280;48558;48.242;11.654;2024-02-23T18:27:56;94593.72;;;4.09;100.00
62510;BME280;48558;48.242;11.654;2024-02-23T18:32:09;94588.13;;;4.03;100.00
62510;BME280;48558;48.242;11.654;2024-02-23T18:36:23;94559.81;;;3.83;100.00
62510;BME280;48558;48.242;11.654;2024-02-23T18:40:36;94566.00;;;3.92;100.00
62510;BME280;48558;48.242;11.654;2024-02-23T18:44:50;94536.09;;;3.98;100.00
62510;BME280;48558;48.242;11.654;2024-02-23T18:49:03;94588.41;;;4.05;100.00
62510;BME280;48558;48.242;11.654;2024-02-23T18:53:17;94596.69;;;3.87;100.00
62510;BME280;48558;48.242;11.654;2024-02-23T18:57:32;94590.00;;;3.88;100.00
62510;BME280;48558;48.242;11.654;2024-02-23T19:01:45;94573.63;;;3.88;100.00
62510;BME280;48558;48.242;11.654;2024-02-23T19:05:58;94583.28;;;3.98;100.00
62510;BME280;48558;48.242;11.654;2024-02-23T19:10:11;94556.78;;;3.81;100.00
62510;BME280;48558;48.242;11.654;2024-02-23T19:14:24;94558.91;;;3.86;100.00
62510;BME280;48558;48.242;11.654;2024-02-23T19:18:36;94561.31;;;3.93;100.00
62510;BME280;48558;48.242;11.654;2024-02-23T19:22:51;94552.19;;;3.54;100.00
62510;BME280;48558;48.242;11.654;2024-02-23T19:27:07;94570.47;;;3.72;100.00
62510;BME280;48558;48.242;11.654;2024-02-23T19:31:20;94581.06;;;3.79;100.00
62510;BME280;48558;48.242;11.654;2024-02-23T19:35:36;94583.03;;;3.78;100.00
62510;BME280;48558;48.242;11.654;2024-02-23T19:39:50;94581.56;;;3.68;100.00
62510;BME280;48558;48.242;11.654;2024-02-23T19:44:04;94575.91;;;3.81;100.00
62510;BME280;48558;48.242;11.654;2024-02-23T19:48:17;94581.56;;;3.68;100.00
62510;BME280;48558;48.242;11.654;2024-02-23T19:52:30;94560.31;;;3.72;100.00
62510;BME280;48558;48.242;11.654;2024-02-23T19:56:42;94554.31;;;3.50;100.00
62510;BME280;48558;48.242;11.654;2024-02-23T20:00:55;94567.78;;;3.53;100.00
62510;BME280;48558;48.242;11.654;2024-02-23T20:05:08;94572.91;;;3.70;100.00
62510;BME280;48558;48.242;11.654;2024-02-23T20:09:21;94560.66;;;3.56;100.00
62510;BME280;48558;48.242;11.654;2024-02-23T20:13:34;94556.41;;;3.64;100.00
62510;BME280;48558;48.242;11.654;2024-02-23T20:17:46;94544.44;;;3.52;100.00
62510;BME280;48558;48.242;11.654;2024-02-23T20:21:59;94518.69;;;3.44;100.00
62510;BME280;48558;48.242;11.654;2024-02-23T20:26:12;94512.25;;;3.66;100.00
62510;BME280;48558;48.242;11.654;2024-02-23T20:30:24;94524.69;;;3.57;100.00
62510;BME280;48558;48.242;11.654;2024-02-23T20:34:39;94534.72;;;3.51;100.00
62510;BME280;48558;48.242;11.654;2024-02-23T20:38:52;94537.47;;;3.51;100.00
62510;BME280;48558;48.242;11.654;2024-02-23T20:43:05;94537.16;;;3.49;100.00
62510;BME280;48558;48.242;11.654;2024-02-23T20:47:18;94527.44;;;3.57;100.00
62510;BME280;48558;48.242;11.654;2024-02-23T20:51:30;94525.63;;;3.54;100.00
62510;BME280;48558;48.242;11.654;2024-02-23T20:55:43;94526.84;;;3.53;100.00
62510;BME280;48558;48.242;11.654;2024-02-23T20:59:58;94520.19;;;3.54;100.00
62510;BME280;48558;48.242;11.654;2024-02-23T21:04:11;94522.72;;;3.58;100.00
62510;BME280;48558;48.242;11.654;2024-02-23T21:08:24;94522.50;;;3.29;100.00
62510;BME280;48558;48.242;11.654;2024-02-23T21:12:37;94544.56;;;3.58;100.00
62510;BME280;48558;48.242;11.654;2024-02-23T21:16:50;94535.06;;;3.44;100.00
62510;BME280;48558;48.242;11.654;2024-02-23T21:21:02;94546.75;;;3.45;100.00
62510;BME280;48558;48.242;11.654;2024-02-23T21:25:16;94550.41;;;3.33;100.00
62510;BME280;48558;48.242;11.654;2024-02-23T21:29:29;94536.47;;;3.22;100.00
62510;BME280;48558;48.242;11.654;2024-02-23T21:33:41;94550.28;;;3.18;100.00
62510;BME280;48558;48.242;11.654;2024-02-23T21:37:56;94557.97;;;3.38;100.00
62510;BME280;48558;48.242;11.654;2024-02-23T21:42:08;94549.03;;;3.28;100.00
62510;BME280;48558;48.242;11.654;2024-02-23T21:46:21;94519.81;;;3.20;100.00
62510;BME280;48558;48.242;11.654;2024-02-23T21:50:33;94551.19;;;3.24;100.00
62510;BME280;48558;48.242;11.654;2024-02-23T21:54:46;94555.72;;;3.36;100.00
62510;BME280;48558;48.242;11.654;2024-02-23T21:58:59;94541.91;;;3.31;100.00
62510;BME280;48558;48.242;11.654;2024-02-23T22:03:11;94540.25;;;3.33;100.00
62510;BME280;48558;48.242;11.654;2024-02-23T22:07:24;94527.38;;;3.25;100.00
62510;BME280;48558;48.242;11.654;2024-02-23T22:11:37;94540.25;;;3.24;100.00